sensor_id;sensor_type;location;lat;lon;timestamp;P1;P2;P0
55485;PMS5003;71262;-25.924;28.194;2023-11-19T00:01:20;3;3;
55485;PMS5003;71262;-25.924;28.194;2023-11-19T00:03:45;3;3;
55485;PMS5003;71262;-25.924;28.194;2023-11-19T00:06:11;3;2;
55485;PMS5003;71262;-25.924;28.194;2023-11-19T00:08:35;4;3;
55485;PMS5003;71262;-25.924;28.194;2023-11-19T00:11:00;4;4;
55485;PMS5003;71262;-25.924;28.194;2023-11-19T00:13:26;2;2;
55485;PMS5003;71262;-25.924;28.194;2023-11-19T00:15:51;3;3;
55485;PMS5003;71262;-25.924;28.194;2023-11-19T00:18:16;4;3;
55485;PMS5003;71262;-25.924;28.194;2023-11-19T00:20:41;3;3;
55485;PMS5003;71262;-25.924;28.194;2023-11-19T00:23:06;4;3;
55485;PMS5003;71262;-25.924;28.194;2023-11-19T00:25:31;1;1;
55485;PMS5003;71262;-25.924;28.194;2023-11-19T00:27:56;3;2;
55485;PMS5003;71262;-25.924;28.194;2023-11-19T00:30:22;3;3;
55485;PMS5003;71262;-25.924;28.194;2023-11-19T00:32:47;3;2;
55485;PMS5003;71262;-25.924;28.194;2023-11-19T00:35:12;3;2;
55485;PMS5003;71262;-25.924;28.194;2023-11-19T00:37:37;3;3;
55485;PMS5003;71262;-25.924;28.194;2023-11-19T00:40:02;3;3;
55485;PMS5003;71262;-25.924;28.194;2023-11-19T00:42:27;3;3;
55485;PMS5003;71262;-25.924;28.194;2023-11-19T00:44:52;3;3;
55485;PMS5003;71262;-25.924;28.194;2023-11-19T00:47:17;5;4;
55485;PMS5003;71262;-25.924;28.194;2023-11-19T00:49:42;1;1;
55485;PMS5003;71262;-25.924;28.194;2023-11-19T00:52:08;2;2;
55485;PMS5003;71262;-25.924;28.194;2023-11-19T00:54:33;3;3;
55485;PMS5003;71262;-25.924;28.194;2023-11-19T00:56:58;2;2;
55485;PMS5003;71262;-25.924;28.194;2023-11-19T00:59:23;4;4;
55485;PMS5003;71262;-25.924;28.194;2023-11-19T01:01:48;2;2;
55485;PMS5003;71262;-25.924;28.194;2023-11-19T01:04:13;3;2;
55485;PMS5003;71262;-25.924;28.194;2023-11-19T01:06:38;3;3;
55485;PMS5003;71262;-25.924;28.194;2023-11-19T01:09:03;4;4;
55485;PMS5003;71262;-25.924;28.194;2023-11-19T01:11:28;1;1;
55485;PMS5003;71262;-25.924;28.194;2023-11-19T01:13:53;1;1;
55485;PMS5003;71262;-25.924;28.194;2023-11-19T01:16:19;95;70;
55485;PMS5003;71262;-25.924;28.194;2023-11-19T01:18:44;49;35;
55485;PMS5003;71262;-25.924;28.194;2023-11-19T01:21:10;9;6;
55485;PMS5003;71262;-25.924;28.194;2023-11-19T01:23:35;3;3;
55485;PMS5003;71262;-25.924;28.194;2023-11-19T01:26:00;3;3;
55485;PMS5003;71262;-25.924;28.194;2023-11-19T01:28:25;2;2;
55485;PMS5003;71262;-25.924;28.194;2023-11-19T01:30:50;2;2;
55485;PMS5003;71262;-25.924;28.194;2023-11-19T01:33:16;4;3;
55485;PMS5003;71262;-25.924;28.194;2023-11-19T01:35:40;3;2;
55485;PMS5003;71262;-25.924;28.194;2023-11-19T01:38:05;1;1;
55485;PMS5003;71262;-25.924;28.194;2023-11-19T01:40:30;1;1;
55485;PMS5003;71262;-25.924;28.194;2023-11-19T01:42:55;2;2;
55485;PMS5003;71262;-25.924;28.194;2023-11-19T01:45:22;3;2;
55485;PMS5003;71262;-25.924;28.194;2023-11-19T01:47:45;3;2;
55485;PMS5003;71262;-25.924;28.194;2023-11-19T01:50:10;3;2;
55485;PMS5003;71262;-25.924;28.194;2023-11-19T01:52:35;2;2;
55485;PMS5003;71262;-25.924;28.194;2023-11-19T01:55:01;3;3;
55485;PMS5003;71262;-25.924;28.194;2023-11-19T01:57:26;2;2;
55485;PMS5003;71262;-25.924;28.194;2023-11-19T01:59:51;2;2;
55485;PMS5003;71262;-25.924;28.194;2023-11-19T02:02:16;2;2;
55485;PMS5003;71262;-25.924;28.194;2023-11-19T02:04:41;3;3;
55485;PMS5003;71262;-25.924;28.194;2023-11-19T02:07:06;2;2;
55485;PMS5003;71262;-25.924;28.194;2023-11-19T02:09:31;2;2;
55485;PMS5003;71262;-25.924;28.194;2023-11-19T02:11:56;3;3;
55485;PMS5003;71262;-25.924;28.194;2023-11-19T02:14:22;3;2;
55485;PMS5003;71262;-25.924;28.194;2023-11-19T02:16:46;1;1;
55485;PMS5003;71262;-25.924;28.194;2023-11-19T02:19:11;3;2;
55485;PMS5003;71262;-25.924;28.194;2023-11-19T02:21:37;5;3;
55485;PMS5003;71262;-25.924;28.194;2023-11-19T02:24:02;2;2;
55485;PMS5003;71262;-25.924;28.194;2023-11-19T02:26:28;2;2;
55485;PMS5003;71262;-25.924;28.194;2023-11-19T02:28:52;4;3;
55485;PMS5003;71262;-25.924;28.194;2023-11-19T02:31:17;2;2;
55485;PMS5003;71262;-25.924;28.194;2023-11-19T02:33:42;2;2;
55485;PMS5003;71262;-25.924;28.194;2023-11-19T02:36:08;2;2;
55485;PMS5003;71262;-25.924;28.194;2023-11-19T02:38:32;3;2;
55485;PMS5003;71262;-25.924;28.194;2023-11-19T02:40:57;2;2;
55485;PMS5003;71262;-25.924;28.194;2023-11-19T02:43:22;4;2;
55485;PMS5003;71262;-25.924;28.194;2023-11-19T02:45:47;2;2;
55485;PMS5003;71262;-25.924;28.194;2023-11-19T02:48:12;1;1;
55485;PMS5003;71262;-25.924;28.194;2023-11-19T02:50:37;3;2;
55485;PMS5003;71262;-25.924;28.194;2023-11-19T02:53:03;3;3;
55485;PMS5003;71262;-25.924;28.194;2023-11-19T02:55:28;3;3;
55485;PMS5003;71262;-25.924;28.194;2023-11-19T02:57:53;2;2;
55485;PMS5003;71262;-25.924;28.194;2023-11-19T03:00:18;3;3;
55485;PMS5003;71262;-25.924;28.194;2023-11-19T03:02:43;2;2;
55485;PMS5003;71262;-25.924;28.194;2023-11-19T03:05:08;2;2;
55485;PMS5003;71262;-25.924;28.194;2023-11-19T03:07:33;3;3;
55485;PMS5003;71262;-25.924;28.194;2023-11-19T03:09:58;90;66;
55485;PMS5003;71262;-25.924;28.194;2023-11-19T03:12:24;104;70;
55485;PMS5003;71262;-25.924;28.194;2023-11-19T03:14:49;55;41;
55485;PMS5003;71262;-25.924;28.194;2023-11-19T03:17:14;9;8;
55485;PMS5003;71262;-25.924;28.194;2023-11-19T03:19:39;3;3;
55485;PMS5003;71262;-25.924;28.194;2023-11-19T03:22:04;2;2;
55485;PMS5003;71262;-25.924;28.194;2023-11-19T03:24:29;4;3;
55485;PMS5003;71262;-25.924;28.194;2023-11-19T03:26:55;2;1;
55485;PMS5003;71262;-25.924;28.194;2023-11-19T03:29:20;3;2;
55485;PMS5003;71262;-25.924;28.194;2023-11-19T03:31:45;3;3;
55485;PMS5003;71262;-25.924;28.194;2023-11-19T03:34:11;25;20;
55485;PMS5003;71262;-25.924;28.194;2023-11-19T03:36:36;32;26;
55485;PMS5003;71262;-25.924;28.194;2023-11-19T03:39:01;10;10;
55485;PMS5003;71262;-25.924;28.194;2023-11-19T03:41:26;17;14;
55485;PMS5003;71262;-25.924;28.194;2023-11-19T03:43:52;18;14;
55485;PMS5003;71262;-25.924;28.194;2023-11-19T03:46:18;7;7;
55485;PMS5003;71262;-25.924;28.194;2023-11-19T03:48:43;9;6;
55485;PMS5003;71262;-25.924;28.194;2023-11-19T03:51:08;9;6;
55485;PMS5003;71262;-25.924;28.194;2023-11-19T03:53:33;7;7;
55485;PMS5003;71262;-25.924;28.194;2023-11-19T03:55:58;6;5;
55485;PMS5003;71262;-25.924;28.194;2023-11-19T03:58:23;5;4;
55485;PMS5003;71262;-25.924;28.194;2023-11-19T04:00:49;47;32;
55485;PMS5003;71262;-25.924;28.194;2023-11-19T04:03:14;9;8;
55485;PMS5003;71262;-25.924;28.194;2023-11-19T04:05:39;5;5;
55485;PMS5003;71262;-25.924;28.194;2023-11-19T04:08:04;5;5;
55485;PMS5003;71262;-25.924;28.194;2023-11-19T04:10:30;5;5;
55485;PMS5003;71262;-25.924;28.194;2023-11-19T04:12:54;5;5;
55485;PMS5003;71262;-25.924;28.194;2023-11-19T04:15:19;5;5;
55485;PMS5003;71262;-25.924;28.194;2023-11-19T04:17:45;5;4;
55485;PMS5003;71262;-25.924;28.194;2023-11-19T04:20:10;11;11;
55485;PMS5003;71262;-25.924;28.194;2023-11-19T04:22:35;59;49;
55485;PMS5003;71262;-25.924;28.194;2023-11-19T04:25:01;22;16;
55485;PMS5003;71262;-25.924;28.194;2023-11-19T04:27:26;57;42;
55485;PMS5003;71262;-25.924;28.194;2023-11-19T04:29:52;27;23;
55485;PMS5003;71262;-25.924;28.194;2023-11-19T04:32:18;11;11;
55485;PMS5003;71262;-25.924;28.194;2023-11-19T04:34:43;8;7;
55485;PMS5003;71262;-25.924;28.194;2023-11-19T04:37:09;5;5;
55485;PMS5003;71262;-25.924;28.194;2023-11-19T04:39:34;24;20;
55485;PMS5003;71262;-25.924;28.194;2023-11-19T04:41:59;5;4;
55485;PMS5003;71262;-25.924;28.194;2023-11-19T04:44:25;15;13;
55485;PMS5003;71262;-25.924;28.194;2023-11-19T04:46:50;11;10;
55485;PMS5003;71262;-25.924;28.194;2023-11-19T04:49:15;4;3;
55485;PMS5003;71262;-25.924;28.194;2023-11-19T04:51:40;5;4;
55485;PMS5003;71262;-25.924;28.194;2023-11-19T04:54:05;4;4;
55485;PMS5003;71262;-25.924;28.194;2023-11-19T04:56:30;5;5;
55485;PMS5003;71262;-25.924;28.194;2023-11-19T04:58:55;5;4;
55485;PMS5003;71262;-25.924;28.194;2023-11-19T05:01:20;6;6;
55485;PMS5003;71262;-25.924;28.194;2023-11-19T05:03:45;11;9;
55485;PMS5003;71262;-25.924;28.194;2023-11-19T05:06:11;4;4;
55485;PMS5003;71262;-25.924;28.194;2023-11-19T05:08:36;5;5;
55485;PMS5003;71262;-25.924;28.194;2023-11-19T05:11:01;5;5;
55485;PMS5003;71262;-25.924;28.194;2023-11-19T05:13:26;8;7;
55485;PMS5003;71262;-25.924;28.194;2023-11-19T05:15:51;6;6;
55485;PMS5003;71262;-25.924;28.194;2023-11-19T05:18:16;8;7;
55485;PMS5003;71262;-25.924;28.194;2023-11-19T05:20:41;7;6;
55485;PMS5003;71262;-25.924;28.194;2023-11-19T05:23:06;6;6;
55485;PMS5003;71262;-25.924;28.194;2023-11-19T05:25:31;4;4;
55485;PMS5003;71262;-25.924;28.194;2023-11-19T05:27:56;7;6;
55485;PMS5003;71262;-25.924;28.194;2023-11-19T05:30:21;5;5;
55485;PMS5003;71262;-25.924;28.194;2023-11-19T05:32:46;7;5;
55485;PMS5003;71262;-25.924;28.194;2023-11-19T05:35:11;5;5;
55485;PMS5003;71262;-25.924;28.194;2023-11-19T05:37:36;8;6;
55485;PMS5003;71262;-25.924;28.194;2023-11-19T05:40:02;8;7;
55485;PMS5003;71262;-25.924;28.194;2023-11-19T05:42:26;9;8;
55485;PMS5003;71262;-25.924;28.194;2023-11-19T05:44:52;7;7;
55485;PMS5003;71262;-25.924;28.194;2023-11-19T05:47:17;9;9;
55485;PMS5003;71262;-25.924;28.194;2023-11-19T05:49:42;12;10;
55485;PMS5003;71262;-25.924;28.194;2023-11-19T05:52:07;8;6;
55485;PMS5003;71262;-25.924;28.194;2023-11-19T05:54:32;13;11;
55485;PMS5003;71262;-25.924;28.194;2023-11-19T05:56:58;7;5;
55485;PMS5003;71262;-25.924;28.194;2023-11-19T05:59:23;5;5;
55485;PMS5003;71262;-25.924;28.194;2023-11-19T06:01:48;9;8;
55485;PMS5003;71262;-25.924;28.194;2023-11-19T06:04:13;5;5;
55485;PMS5003;71262;-25.924;28.194;2023-11-19T06:06:39;5;5;
55485;PMS5003;71262;-25.924;28.194;2023-11-19T06:09:04;7;6;
55485;PMS5003;71262;-25.924;28.194;2023-11-19T06:11:29;6;5;
55485;PMS5003;71262;-25.924;28.194;2023-11-19T06:13:54;8;7;
55485;PMS5003;71262;-25.924;28.194;2023-11-19T06:16:20;6;6;
55485;PMS5003;71262;-25.924;28.194;2023-11-19T06:18:45;6;6;
55485;PMS5003;71262;-25.924;28.194;2023-11-19T06:21:10;7;5;
55485;PMS5003;71262;-25.924;28.194;2023-11-19T06:23:35;5;4;
55485;PMS5003;71262;-25.924;28.194;2023-11-19T06:26:00;6;6;
55485;PMS5003;71262;-25.924;28.194;2023-11-19T06:28:25;55;51;
55485;PMS5003;71262;-25.924;28.194;2023-11-19T06:30:50;57;57;
55485;PMS5003;71262;-25.924;28.194;2023-11-19T06:33:16;30;28;
55485;PMS5003;71262;-25.924;28.194;2023-11-19T06:35:42;26;23;
55485;PMS5003;71262;-25.924;28.194;2023-11-19T06:38:07;55;55;
55485;PMS5003;71262;-25.924;28.194;2023-11-19T06:40:32;50;50;
55485;PMS5003;71262;-25.924;28.194;2023-11-19T06:42:59;52;48;
55485;PMS5003;71262;-25.924;28.194;2023-11-19T06:45:23;63;63;
55485;PMS5003;71262;-25.924;28.194;2023-11-19T06:47:49;36;35;
55485;PMS5003;71262;-25.924;28.194;2023-11-19T06:50:15;54;53;
55485;PMS5003;71262;-25.924;28.194;2023-11-19T06:52:40;20;17;
55485;PMS5003;71262;-25.924;28.194;2023-11-19T06:55:05;82;78;
55485;PMS5003;71262;-25.924;28.194;2023-11-19T06:57:31;42;39;
55485;PMS5003;71262;-25.924;28.194;2023-11-19T06:59:56;63;60;
55485;PMS5003;71262;-25.924;28.194;2023-11-19T07:02:22;128;127;
55485;PMS5003;71262;-25.924;28.194;2023-11-19T07:04:47;21;19;
55485;PMS5003;71262;-25.924;28.194;2023-11-19T07:07:12;47;44;
55485;PMS5003;71262;-25.924;28.194;2023-11-19T07:09:38;44;41;
55485;PMS5003;71262;-25.924;28.194;2023-11-19T07:12:04;19;19;
55485;PMS5003;71262;-25.924;28.194;2023-11-19T07:14:29;22;21;
55485;PMS5003;71262;-25.924;28.194;2023-11-19T07:16:55;21;21;
55485;PMS5003;71262;-25.924;28.194;2023-11-19T07:19:20;39;38;
55485;PMS5003;71262;-25.924;28.194;2023-11-19T07:21:45;19;16;
55485;PMS5003;71262;-25.924;28.194;2023-11-19T07:24:11;29;25;
55485;PMS5003;71262;-25.924;28.194;2023-11-19T07:26:39;31;28;
55485;PMS5003;71262;-25.924;28.194;2023-11-19T07:29:02;42;39;
55485;PMS5003;71262;-25.924;28.194;2023-11-19T07:31:27;28;27;
55485;PMS5003;71262;-25.924;28.194;2023-11-19T07:33:53;31;31;
55485;PMS5003;71262;-25.924;28.194;2023-11-19T07:36:18;40;40;
55485;PMS5003;71262;-25.924;28.194;2023-11-19T07:38:45;11;8;
55485;PMS5003;71262;-25.924;28.194;2023-11-19T07:41:09;39;36;
55485;PMS5003;71262;-25.924;28.194;2023-11-19T07:43:34;10;7;
55485;PMS5003;71262;-25.924;28.194;2023-11-19T07:46:00;16;11;
55485;PMS5003;71262;-25.924;28.194;2023-11-19T07:48:25;29;28;
55485;PMS5003;71262;-25.924;28.194;2023-11-19T07:50:52;40;40;
55485;PMS5003;71262;-25.924;28.194;2023-11-19T07:53:16;11;8;
55485;PMS5003;71262;-25.924;28.194;2023-11-19T07:55:42;19;17;
55485;PMS5003;71262;-25.924;28.194;2023-11-19T07:58:07;12;10;
55485;PMS5003;71262;-25.924;28.194;2023-11-19T08:00:32;50;47;
55485;PMS5003;71262;-25.924;28.194;2023-11-19T08:02:58;125;125;
55485;PMS5003;71262;-25.924;28.194;2023-11-19T08:05:23;102;101;
55485;PMS5003;71262;-25.924;28.194;2023-11-19T08:07:49;58;57;
55485;PMS5003;71262;-25.924;28.194;2023-11-19T08:10:14;49;49;
55485;PMS5003;71262;-25.924;28.194;2023-11-19T08:12:40;67;66;
55485;PMS5003;71262;-25.924;28.194;2023-11-19T08:15:06;64;64;
55485;PMS5003;71262;-25.924;28.194;2023-11-19T08:17:31;64;64;
55485;PMS5003;71262;-25.924;28.194;2023-11-19T08:19:57;13;9;
55485;PMS5003;71262;-25.924;28.194;2023-11-19T08:22:23;20;19;
55485;PMS5003;71262;-25.924;28.194;2023-11-19T08:24:48;24;24;
55485;PMS5003;71262;-25.924;28.194;2023-11-19T08:27:13;31;30;
55485;PMS5003;71262;-25.924;28.194;2023-11-19T08:29:38;27;27;
55485;PMS5003;71262;-25.924;28.194;2023-11-19T08:32:03;25;25;
55485;PMS5003;71262;-25.924;28.194;2023-11-19T08:34:28;21;21;
55485;PMS5003;71262;-25.924;28.194;2023-11-19T08:36:53;22;21;
55485;PMS5003;71262;-25.924;28.194;2023-11-19T08:39:18;18;18;
55485;PMS5003;71262;-25.924;28.194;2023-11-19T08:41:44;14;14;
55485;PMS5003;71262;-25.924;28.194;2023-11-19T08:44:08;31;30;
55485;PMS5003;71262;-25.924;28.194;2023-11-19T08:46:34;59;59;
55485;PMS5003;71262;-25.924;28.194;2023-11-19T08:48:59;28;27;
55485;PMS5003;71262;-25.924;28.194;2023-11-19T08:51:25;31;31;
55485;PMS5003;71262;-25.924;28.194;2023-11-19T08:53:50;40;40;
55485;PMS5003;71262;-25.924;28.194;2023-11-19T08:56:15;48;48;
55485;PMS5003;71262;-25.924;28.194;2023-11-19T08:58:41;20;20;
55485;PMS5003;71262;-25.924;28.194;2023-11-19T09:01:06;56;55;
55485;PMS5003;71262;-25.924;28.194;2023-11-19T09:03:31;54;53;
55485;PMS5003;71262;-25.924;28.194;2023-11-19T09:05:57;11;9;
55485;PMS5003;71262;-25.924;28.194;2023-11-19T09:08:22;15;15;
55485;PMS5003;71262;-25.924;28.194;2023-11-19T09:10:47;16;16;
55485;PMS5003;71262;-25.924;28.194;2023-11-19T09:13:12;14;14;
55485;PMS5003;71262;-25.924;28.194;2023-11-19T09:15:37;16;16;
55485;PMS5003;71262;-25.924;28.194;2023-11-19T09:18:03;15;15;
55485;PMS5003;71262;-25.924;28.194;2023-11-19T09:20:27;14;13;
55485;PMS5003;71262;-25.924;28.194;2023-11-19T09:22:52;16;16;
55485;PMS5003;71262;-25.924;28.194;2023-11-19T09:25:18;17;16;
55485;PMS5003;71262;-25.924;28.194;2023-11-19T09:27:43;23;22;
55485;PMS5003;71262;-25.924;28.194;2023-11-19T09:30:08;21;18;
55485;PMS5003;71262;-25.924;28.194;2023-11-19T09:32:33;16;16;
55485;PMS5003;71262;-25.924;28.194;2023-11-19T09:34:58;17;17;
55485;PMS5003;71262;-25.924;28.194;2023-11-19T09:37:23;24;23;
55485;PMS5003;71262;-25.924;28.194;2023-11-19T09:39:48;25;25;
55485;PMS5003;71262;-25.924;28.194;2023-11-19T09:42:13;26;25;
55485;PMS5003;71262;-25.924;28.194;2023-11-19T09:44:38;24;24;
55485;PMS5003;71262;-25.924;28.194;2023-11-19T09:47:03;18;18;
55485;PMS5003;71262;-25.924;28.194;2023-11-19T09:49:28;13;13;
55485;PMS5003;71262;-25.924;28.194;2023-11-19T09:51:54;17;17;
55485;PMS5003;71262;-25.924;28.194;2023-11-19T09:54:19;15;15;
55485;PMS5003;71262;-25.924;28.194;2023-11-19T09:56:44;13;12;
55485;PMS5003;71262;-25.924;28.194;2023-11-19T09:59:09;12;12;
55485;PMS5003;71262;-25.924;28.194;2023-11-19T10:01:34;11;10;
55485;PMS5003;71262;-25.924;28.194;2023-11-19T10:03:59;14;13;
55485;PMS5003;71262;-25.924;28.194;2023-11-19T10:06:24;12;12;
55485;PMS5003;71262;-25.924;28.194;2023-11-19T10:08:49;13;13;
55485;PMS5003;71262;-25.924;28.194;2023-11-19T10:11:14;9;9;
55485;PMS5003;71262;-25.924;28.194;2023-11-19T10:13:39;8;8;
55485;PMS5003;71262;-25.924;28.194;2023-11-19T10:16:06;10;9;
55485;PMS5003;71262;-25.924;28.194;2023-11-19T10:18:29;9;9;
55485;PMS5003;71262;-25.924;28.194;2023-11-19T10:20:54;8;8;
55485;PMS5003;71262;-25.924;28.194;2023-11-19T10:23:19;12;12;
55485;PMS5003;71262;-25.924;28.194;2023-11-19T10:25:44;11;11;
55485;PMS5003;71262;-25.924;28.194;2023-11-19T10:28:10;10;10;
55485;PMS5003;71262;-25.924;28.194;2023-11-19T10:30:34;10;10;
55485;PMS5003;71262;-25.924;28.194;2023-11-19T10:33:03;10;10;
55485;PMS5003;71262;-25.924;28.194;2023-11-19T10:35:25;10;10;
55485;PMS5003;71262;-25.924;28.194;2023-11-19T10:37:50;12;11;
55485;PMS5003;71262;-25.924;28.194;2023-11-19T10:40:15;12;11;
55485;PMS5003;71262;-25.924;28.194;2023-11-19T10:42:41;11;11;
55485;PMS5003;71262;-25.924;28.194;2023-11-19T10:45:05;12;11;
55485;PMS5003;71262;-25.924;28.194;2023-11-19T10:47:30;9;9;
55485;PMS5003;71262;-25.924;28.194;2023-11-19T10:49:55;11;11;
55485;PMS5003;71262;-25.924;28.194;2023-11-19T10:52:20;15;15;
55485;PMS5003;71262;-25.924;28.194;2023-11-19T10:54:47;26;25;
55485;PMS5003;71262;-25.924;28.194;2023-11-19T10:57:10;34;34;
55485;PMS5003;71262;-25.924;28.194;2023-11-19T10:59:36;44;28;
55485;PMS5003;71262;-25.924;28.194;2023-11-19T11:02:03;59;44;
55485;PMS5003;71262;-25.924;28.194;2023-11-19T11:04:27;10;7;
55485;PMS5003;71262;-25.924;28.194;2023-11-19T11:06:53;15;15;
55485;PMS5003;71262;-25.924;28.194;2023-11-19T11:09:17;23;23;
55485;PMS5003;71262;-25.924;28.194;2023-11-19T11:11:43;39;39;
55485;PMS5003;71262;-25.924;28.194;2023-11-19T11:14:08;63;63;
55485;PMS5003;71262;-25.924;28.194;2023-11-19T11:16:33;80;80;
55485;PMS5003;71262;-25.924;28.194;2023-11-19T11:18:58;83;83;
55485;PMS5003;71262;-25.924;28.194;2023-11-19T11:21:24;80;79;
55485;PMS5003;71262;-25.924;28.194;2023-11-19T11:23:56;68;68;
55485;PMS5003;71262;-25.924;28.194;2023-11-19T11:26:20;63;42;
55485;PMS5003;71262;-25.924;28.194;2023-11-19T11:28:40;22;22;
55485;PMS5003;71262;-25.924;28.194;2023-11-19T11:31:09;12;10;
55485;PMS5003;71262;-25.924;28.194;2023-11-19T11:33:34;5;4;
55485;PMS5003;71262;-25.924;28.194;2023-11-19T11:35:58;3;3;
55485;PMS5003;71262;-25.924;28.194;2023-11-19T11:38:21;10;10;
55485;PMS5003;71262;-25.924;28.194;2023-11-19T11:40:47;15;12;
55485;PMS5003;71262;-25.924;28.194;2023-11-19T11:45:36;18;17;
55485;PMS5003;71262;-25.924;28.194;2023-11-19T11:50:26;55;39;
55485;PMS5003;71262;-25.924;28.194;2023-11-19T11:55:17;13;11;
55485;PMS5003;71262;-25.924;28.194;2023-11-19T11:57:43;17;12;
55485;PMS5003;71262;-25.924;28.194;2023-11-19T12:00:08;18;17;
55485;PMS5003;71262;-25.924;28.194;2023-11-19T12:02:33;24;23;
55485;PMS5003;71262;-25.924;28.194;2023-11-19T12:04:58;24;24;
55485;PMS5003;71262;-25.924;28.194;2023-11-19T12:07:23;22;22;
55485;PMS5003;71262;-25.924;28.194;2023-11-19T12:09:49;24;24;
55485;PMS5003;71262;-25.924;28.194;2023-11-19T12:17:04;26;26;
55485;PMS5003;71262;-25.924;28.194;2023-11-19T12:19:28;27;27;
55485;PMS5003;71262;-25.924;28.194;2023-11-19T12:21:53;25;25;
55485;PMS5003;71262;-25.924;28.194;2023-11-19T12:24:19;27;27;
55485;PMS5003;71262;-25.924;28.194;2023-11-19T12:26:44;26;26;
55485;PMS5003;71262;-25.924;28.194;2023-11-19T12:29:09;27;27;
55485;PMS5003;71262;-25.924;28.194;2023-11-19T12:31:34;27;26;
55485;PMS5003;71262;-25.924;28.194;2023-11-19T12:33:59;26;26;
55485;PMS5003;71262;-25.924;28.194;2023-11-19T12:36:24;28;28;
55485;PMS5003;71262;-25.924;28.194;2023-11-19T12:38:49;26;26;
55485;PMS5003;71262;-25.924;28.194;2023-11-19T12:41:14;26;26;
55485;PMS5003;71262;-25.924;28.194;2023-11-19T12:43:39;26;26;
55485;PMS5003;71262;-25.924;28.194;2023-11-19T12:48:30;26;26;
55485;PMS5003;71262;-25.924;28.194;2023-11-19T12:50:55;26;26;
55485;PMS5003;71262;-25.924;28.194;2023-11-19T12:53:20;21;19;
55485;PMS5003;71262;-25.924;28.194;2023-11-19T12:55:45;22;21;
55485;PMS5003;71262;-25.924;28.194;2023-11-19T12:58:10;21;21;
55485;PMS5003;71262;-25.924;28.194;2023-11-19T13:00:35;20;19;
55485;PMS5003;71262;-25.924;28.194;2023-11-19T13:03:00;20;20;
55485;PMS5003;71262;-25.924;28.194;2023-11-19T13:05:27;19;19;
55485;PMS5003;71262;-25.924;28.194;2023-11-19T13:07:50;17;17;
55485;PMS5003;71262;-25.924;28.194;2023-11-19T13:10:15;15;15;
55485;PMS5003;71262;-25.924;28.194;2023-11-19T13:12:40;17;17;
55485;PMS5003;71262;-25.924;28.194;2023-11-19T13:15:06;16;16;
55485;PMS5003;71262;-25.924;28.194;2023-11-19T13:17:31;17;17;
55485;PMS5003;71262;-25.924;28.194;2023-11-19T13:19:56;15;15;
55485;PMS5003;71262;-25.924;28.194;2023-11-19T13:22:21;14;14;
55485;PMS5003;71262;-25.924;28.194;2023-11-19T13:24:46;12;12;
55485;PMS5003;71262;-25.924;28.194;2023-11-19T13:27:11;12;12;
55485;PMS5003;71262;-25.924;28.194;2023-11-19T13:29:36;11;11;
55485;PMS5003;71262;-25.924;28.194;2023-11-19T13:32:01;12;11;
55485;PMS5003;71262;-25.924;28.194;2023-11-19T13:34:26;12;12;
55485;PMS5003;71262;-25.924;28.194;2023-11-19T13:36:51;10;10;
55485;PMS5003;71262;-25.924;28.194;2023-11-19T13:39:16;10;10;
55485;PMS5003;71262;-25.924;28.194;2023-11-19T13:41:41;12;12;
55485;PMS5003;71262;-25.924;28.194;2023-11-19T13:44:06;9;9;
55485;PMS5003;71262;-25.924;28.194;2023-11-19T13:46:31;10;10;
55485;PMS5003;71262;-25.924;28.194;2023-11-19T13:48:56;8;8;
55485;PMS5003;71262;-25.924;28.194;2023-11-19T13:51:22;30;24;
55485;PMS5003;71262;-25.924;28.194;2023-11-19T13:53:48;14;12;
55485;PMS5003;71262;-25.924;28.194;2023-11-19T13:56:13;13;13;
55485;PMS5003;71262;-25.924;28.194;2023-11-19T13:58:38;14;14;
55485;PMS5003;71262;-25.924;28.194;2023-11-19T14:01:03;13;13;
55485;PMS5003;71262;-25.924;28.194;2023-11-19T14:03:28;12;12;
55485;PMS5003;71262;-25.924;28.194;2023-11-19T14:05:53;12;12;
55485;PMS5003;71262;-25.924;28.194;2023-11-19T14:08:18;12;11;
55485;PMS5003;71262;-25.924;28.194;2023-11-19T14:10:44;21;17;
55485;PMS5003;71262;-25.924;28.194;2023-11-19T14:13:09;25;18;
55485;PMS5003;71262;-25.924;28.194;2023-11-19T14:15:34;52;37;
55485;PMS5003;71262;-25.924;28.194;2023-11-19T14:17:59;3;2;
55485;PMS5003;71262;-25.924;28.194;2023-11-19T14:20:24;7;6;
55485;PMS5003;71262;-25.924;28.194;2023-11-19T14:22:49;7;7;
55485;PMS5003;71262;-25.924;28.194;2023-11-19T14:25:15;7;7;
55485;PMS5003;71262;-25.924;28.194;2023-11-19T14:27:40;1;1;
55485;PMS5003;71262;-25.924;28.194;2023-11-19T14:30:05;3;3;
55485;PMS5003;71262;-25.924;28.194;2023-11-19T14:32:29;2;2;
55485;PMS5003;71262;-25.924;28.194;2023-11-19T14:34:54;2;2;
55485;PMS5003;71262;-25.924;28.194;2023-11-19T14:37:20;1;1;
55485;PMS5003;71262;-25.924;28.194;2023-11-19T14:39:46;2;2;
55485;PMS5003;71262;-25.924;28.194;2023-11-19T14:42:10;2;2;
55485;PMS5003;71262;-25.924;28.194;2023-11-19T14:44:35;2;2;
55485;PMS5003;71262;-25.924;28.194;2023-11-19T14:47:00;2;2;
55485;PMS5003;71262;-25.924;28.194;2023-11-19T14:49:26;2;1;
55485;PMS5003;71262;-25.924;28.194;2023-11-19T14:51:51;3;3;
55485;PMS5003;71262;-25.924;28.194;2023-11-19T14:54:16;3;3;
55485;PMS5003;71262;-25.924;28.194;2023-11-19T14:56:42;22;19;
55485;PMS5003;71262;-25.924;28.194;2023-11-19T14:59:07;35;25;
55485;PMS5003;71262;-25.924;28.194;2023-11-19T15:01:32;37;24;
55485;PMS5003;71262;-25.924;28.194;2023-11-19T15:03:57;31;26;
55485;PMS5003;71262;-25.924;28.194;2023-11-19T15:06:23;13;12;
55485;PMS5003;71262;-25.924;28.194;2023-11-19T15:08:48;14;13;
55485;PMS5003;71262;-25.924;28.194;2023-11-19T15:11:13;31;28;
55485;PMS5003;71262;-25.924;28.194;2023-11-19T15:13:38;64;64;
55485;PMS5003;71262;-25.924;28.194;2023-11-19T15:16:03;64;63;
55485;PMS5003;71262;-25.924;28.194;2023-11-19T15:18:28;54;46;
55485;PMS5003;71262;-25.924;28.194;2023-11-19T15:20:54;71;52;
55485;PMS5003;71262;-25.924;28.194;2023-11-19T15:23:20;24;22;
55485;PMS5003;71262;-25.924;28.194;2023-11-19T15:25:45;22;19;
55485;PMS5003;71262;-25.924;28.194;2023-11-19T15:28:10;31;30;
55485;PMS5003;71262;-25.924;28.194;2023-11-19T15:30:36;40;38;
55485;PMS5003;71262;-25.924;28.194;2023-11-19T15:33:01;37;27;
55485;PMS5003;71262;-25.924;28.194;2023-11-19T15:35:27;40;34;
55485;PMS5003;71262;-25.924;28.194;2023-11-19T15:37:53;52;51;
55485;PMS5003;71262;-25.924;28.194;2023-11-19T15:40:19;34;30;
55485;PMS5003;71262;-25.924;28.194;2023-11-19T15:42:45;79;77;
55485;PMS5003;71262;-25.924;28.194;2023-11-19T15:45:10;33;33;
55485;PMS5003;71262;-25.924;28.194;2023-11-19T15:47:35;43;42;
55485;PMS5003;71262;-25.924;28.194;2023-11-19T15:50:00;21;20;
55485;PMS5003;71262;-25.924;28.194;2023-11-19T15:52:25;15;15;
55485;PMS5003;71262;-25.924;28.194;2023-11-19T15:54:51;88;68;
55485;PMS5003;71262;-25.924;28.194;2023-11-19T15:57:16;49;30;
55485;PMS5003;71262;-25.924;28.194;2023-11-19T15:59:42;48;44;